PWSweather.com
Personal Weather Stations
Station Observations
WISCHPK61
Green Bay Schmitt Park, Green Bay, WI 54311

Green Bay Schmitt ParkGreen Bay, WI 54311

Lat: 44.514277, Lon: -87.935067

Elevation: 735

Station Type: Acu Rite Pro Weather Center model 02032C

http://greenbayweathercam.com

High Low Average
Temperature 53.2°F11.8°C 27.1°F-2.7°C 38.6°F3.7°C
Dew Point 52.9°F11.6°C 26.9°F-2.8°C 37.6°F3.1°C
Winds Calm Calm Calm Calm Calm SSWCalm SSW
Wind Gusts 1.2 mph1.9 kmh -- --
Humidity 99% 76% 97%
Pressure 29.57 in1001.4 mb 29.38 in994.9 mb -
Precipitation 0.00 in0.0 mm - -
Hour Temp Dew Point Humidity Winds Wind Gusts Pressure Precip Precip Rate Daily Precip Total
12:00 AM 38.1°F3.4°C 37.8°F3.2°C 99% Calm Calm -- 29.40 in995.6 mb - 0.00 in0.0 mm 0.00 in0.0 mm
01:00 AM 37.0°F2.8°C 36.7°F2.6°C 99% Calm Calm -- 29.40 in995.6 mb - 0.00 in0.0 mm 0.00 in0.0 mm
02:00 AM 36.3°F2.4°C 36.0°F2.2°C 99% Calm Calm -- 29.40 in995.6 mb - 0.00 in0.0 mm 0.00 in0.0 mm
03:00 AM 36.1°F2.3°C 29.3°F-1.5°C 76% Calm Calm -- 29.39 in995.3 mb - 0.00 in0.0 mm 0.00 in0.0 mm
04:00 AM 36.0°F2.2°C 35.7°F2.1°C 99% Calm Calm -- 29.38 in994.9 mb - 0.00 in0.0 mm 0.00 in0.0 mm
05:00 AM 34.5°F1.4°C 34.2°F1.2°C 99% Calm Calm -- 29.39 in995.3 mb - 0.00 in0.0 mm 0.00 in0.0 mm
06:00 AM 34.3°F1.3°C 34.0°F1.1°C 99% Calm Calm -- 29.39 in995.3 mb - 0.00 in0.0 mm 0.00 in0.0 mm
07:00 AM 34.2°F1.2°C 30.2°F-1.0°C 85% Calm Calm -- 29.38 in994.9 mb - 0.00 in0.0 mm 0.00 in0.0 mm
08:00 AM 36.0°F2.2°C 35.7°F2.1°C 99% Calm Calm -- 29.38 in994.9 mb - 0.00 in0.0 mm 0.00 in0.0 mm
09:00 AM 40.0°F4.4°C 39.8°F4.3°C 99% Calm Calm -- 29.38 in994.9 mb - 0.00 in0.0 mm 0.00 in0.0 mm
10:00 AM 44.3°F6.8°C 44.1°F6.7°C 99% Calm Calm -- 29.39 in995.3 mb - 0.00 in0.0 mm 0.00 in0.0 mm
11:00 AM 50.2°F10.1°C 49.9°F9.9°C 99% Calm Calm -- 29.40 in995.6 mb - 0.00 in0.0 mm 0.00 in0.0 mm
12:00 PM 53.2°F11.8°C 52.9°F11.6°C 99% Calm Calm 1.2 mph1.9 kmh 29.42 in996.3 mb - 0.00 in0.0 mm 0.00 in0.0 mm
01:00 PM 50.0°F10.0°C 49.7°F9.8°C 99% Calm Calm -- 29.43 in996.6 mb - 0.00 in0.0 mm 0.00 in0.0 mm
02:00 PM 51.6°F10.9°C 51.3°F10.7°C 99% Calm Calm -- 29.43 in996.6 mb - 0.00 in0.0 mm 0.00 in0.0 mm
03:00 PM 47.6°F8.7°C 47.4°F8.6°C 99% Calm Calm -- 29.43 in996.6 mb - 0.00 in0.0 mm 0.00 in0.0 mm
04:00 PM 41.7°F5.4°C 41.5°F5.3°C 99% Calm Calm -- 29.45 in997.3 mb - 0.00 in0.0 mm 0.00 in0.0 mm
05:00 PM 40.8°F4.9°C 34.5°F1.4°C 78% Calm Calm -- 29.46 in997.6 mb - 0.00 in0.0 mm 0.00 in0.0 mm
06:00 PM 36.7°F2.6°C 36.4°F2.4°C 99% Calm Calm -- 29.48 in998.3 mb - 0.00 in0.0 mm 0.00 in0.0 mm
07:00 PM 34.3°F1.3°C 34.0°F1.1°C 99% Calm Calm -- 29.50 in999.0 mb - 0.00 in0.0 mm 0.00 in0.0 mm
08:00 PM 32.4°F0.2°C 32.2°F0.1°C 99% Calm Calm -- 29.52 in999.7 mb - 0.00 in0.0 mm 0.00 in0.0 mm
09:00 PM 31.6°F-0.2°C 31.4°F-0.3°C 99% Calm Calm -- 29.54 in1000.3 mb - 0.00 in0.0 mm 0.00 in0.0 mm
10:00 PM 30.4°F-0.9°C 30.2°F-1.0°C 99% Calm Calm 1.2 mph1.9 kmh 29.55 in1000.7 mb - 0.00 in0.0 mm 0.00 in0.0 mm
11:00 PM 29.1°F-1.6°C 28.9°F-1.7°C 99% Calm Calm -- 29.57 in1001.4 mb - 0.00 in0.0 mm 0.00 in0.0 mm